首页
METAR-TAF:

METAR-TAF

机场 :

Volk Field Air National Guard Base

Camp Douglas, 威斯康辛州, 美国

纬度: 43-56N, 经度: 090-16W, 海拔: 277米

当前天气观测

该预报发布于1小时和17分钟前的20:55 UTC
静风
温度 24°C
湿度 47%
气压 1017 hPa
能見度: 16.1公里
多云层高于6500英尺

METAR: KVOK 142055Z 00000KT 10SM BKN065 24/12 A3003 RMK AO2A SLP171 T02420118 50000

时间: 17:12 (22:12 UTC)

预报

该预报发布于5小时和12分钟前的17:00 UTC
预报有效从14日的 17点(UTC)到 15日的 23点(UTC)
风速7节,风向西
能見度: 1509
天空无云

TAF: KVOK 141700Z 1417/1523 26007KT 9999 SKC QNH3006INS TX27/1422Z TN12/1511Z LAST NO AMDS 1509

超过4000个机场的气象观测和天气预报(METAR&TAF报告)。

可查询的气象台以黄色和红色小点在地图上表示。

将鼠标移到小点上方,可查看气象台名称。

然后点击查看天气观测和预报。

如需切换地图:点击带黑十字的绿色按钮放大地图;点击带横线的绿色按钮缩小地图;或者点击绿色箭头查看邻近地区的地图。


METAR-TAF: